createdAt,value
2019-05-31T00:01:34.956Z,18.60
2019-05-31T00:04:04.512Z,18.60
2019-05-31T00:06:33.745Z,18.60
2019-05-31T00:09:06.711Z,18.60
2019-05-31T00:11:36.110Z,18.60
2019-05-31T00:14:19.902Z,18.60
2019-05-31T00:16:37.699Z,18.60
2019-05-31T00:19:07.024Z,18.60
2019-05-31T00:21:36.376Z,18.50
2019-05-31T00:24:06.534Z,18.50
2019-05-31T00:26:35.730Z,18.50
2019-05-31T00:29:05.214Z,18.50
2019-05-31T00:31:35.125Z,18.50
2019-05-31T00:34:05.637Z,18.50
2019-05-31T00:36:35.072Z,18.50
2019-05-31T00:39:07.138Z,18.50
2019-05-31T00:41:36.411Z,18.40
2019-05-31T00:44:06.200Z,18.40
2019-05-31T00:46:35.421Z,18.30
2019-05-31T00:49:05.878Z,18.30
2019-05-31T00:51:35.430Z,18.30
2019-05-31T00:54:06.303Z,18.30
2019-05-31T00:56:35.870Z,18.30
2019-05-31T00:59:05.401Z,18.20
2019-05-31T01:01:35.137Z,18.20
2019-05-31T01:04:05.319Z,18.20
2019-05-31T01:06:35.037Z,18.20
2019-05-31T01:09:05.653Z,18.20
2019-05-31T01:11:34.900Z,18.20
2019-05-31T01:14:04.246Z,18.20
2019-05-31T01:16:33.656Z,18.20
2019-05-31T01:19:03.009Z,18.20
2019-05-31T01:21:32.299Z,18.20
2019-05-31T01:24:01.499Z,18.10
2019-05-31T01:26:30.838Z,18.20
2019-05-31T01:29:01.539Z,18.20
2019-05-31T01:31:30.969Z,18.20
2019-05-31T01:34:00.255Z,18.20
2019-05-31T01:36:29.573Z,18.20
2019-05-31T01:38:58.785Z,18.10
2019-05-31T01:41:28.129Z,18.10
2019-05-31T01:43:57.489Z,18.10
2019-05-31T01:46:26.669Z,18.00
2019-05-31T01:48:55.937Z,18.00
2019-05-31T01:51:25.185Z,18.00
2019-05-31T01:53:54.493Z,18.00
2019-05-31T01:56:23.750Z,17.90
2019-05-31T01:58:53.824Z,17.90
2019-05-31T02:01:22.994Z,17.90
2019-05-31T02:03:52.220Z,17.80
2019-05-31T02:06:21.467Z,17.90
2019-05-31T02:08:50.691Z,17.90
2019-05-31T02:11:20.061Z,17.90
2019-05-31T02:13:49.259Z,17.90
2019-05-31T02:16:18.557Z,18.00
2019-05-31T02:18:47.774Z,18.00
2019-05-31T02:21:17.082Z,18.00
2019-05-31T02:23:46.434Z,18.00
2019-05-31T02:26:15.784Z,18.00
2019-05-31T02:28:45.650Z,18.00
2019-05-31T02:31:16.809Z,18.00
2019-05-31T02:33:46.083Z,18.00
2019-05-31T02:36:17.284Z,18.00
2019-05-31T02:38:46.444Z,18.00
2019-05-31T02:41:16.389Z,18.00
2019-05-31T02:43:46.806Z,18.10
2019-05-31T02:46:17.172Z,18.00
2019-05-31T02:48:46.672Z,18.00
2019-05-31T02:51:17.475Z,18.00
2019-05-31T02:53:46.969Z,18.00
2019-05-31T02:56:18.900Z,18.00
2019-05-31T02:58:51.220Z,18.00
2019-05-31T03:01:23.179Z,18.00
2019-05-31T03:03:53.265Z,17.90
2019-05-31T03:06:26.173Z,17.90
2019-05-31T03:09:01.961Z,17.90
2019-05-31T03:11:31.609Z,17.90
2019-05-31T03:14:01.165Z,17.90
2019-05-31T03:16:30.561Z,17.90
2019-05-31T03:19:00.614Z,17.80
2019-05-31T03:21:30.024Z,17.90
2019-05-31T03:23:59.318Z,17.90
2019-05-31T03:26:28.867Z,17.90
2019-05-31T03:28:58.373Z,17.90
2019-05-31T03:31:35.446Z,17.90
2019-05-31T03:33:58.885Z,17.90
2019-05-31T03:36:35.342Z,17.90
2019-05-31T03:38:59.147Z,17.90
2019-05-31T03:41:28.461Z,18.00
2019-05-31T03:43:57.831Z,17.90
2019-05-31T03:46:40.976Z,17.90
2019-05-31T03:48:58.597Z,18.00
2019-05-31T03:51:28.048Z,18.00
2019-05-31T03:53:57.327Z,18.00
2019-05-31T03:56:28.010Z,18.00
2019-05-31T03:58:57.277Z,18.00
2019-05-31T04:01:26.491Z,18.00
2019-05-31T04:03:57.774Z,18.00
2019-05-31T04:06:27.022Z,18.00
2019-05-31T04:08:56.236Z,18.00
2019-05-31T04:11:27.856Z,18.00
2019-05-31T04:13:57.306Z,18.00
2019-05-31T04:16:37.874Z,18.00
2019-05-31T04:18:57.790Z,18.00
2019-05-31T04:21:29.486Z,18.10
2019-05-31T04:23:58.818Z,18.10
2019-05-31T04:26:28.218Z,18.10
2019-05-31T04:28:57.422Z,18.10
2019-05-31T04:31:26.775Z,18.10
2019-05-31T04:33:56.226Z,18.10
2019-05-31T04:36:26.721Z,18.20
2019-05-31T04:38:56.302Z,18.20
2019-05-31T04:41:27.060Z,18.20
2019-05-31T04:43:58.483Z,18.20
2019-05-31T04:46:28.660Z,18.30
2019-05-31T04:48:58.742Z,18.40
2019-05-31T04:51:28.138Z,18.40
2019-05-31T04:53:58.176Z,18.40
2019-05-31T04:56:28.894Z,18.40
2019-05-31T04:58:58.141Z,18.40
2019-05-31T05:01:29.783Z,18.50
2019-05-31T05:03:59.068Z,18.50
2019-05-31T05:06:28.318Z,18.50
2019-05-31T05:08:57.567Z,18.60
2019-05-31T05:11:27.129Z,18.60
2019-05-31T05:13:56.467Z,18.60
2019-05-31T05:16:27.018Z,18.70
2019-05-31T05:18:56.487Z,18.70
2019-05-31T05:21:26.864Z,18.80
2019-05-31T05:23:56.562Z,18.80
2019-05-31T05:26:25.725Z,18.90
2019-05-31T05:28:54.906Z,19.00
2019-05-31T05:31:24.169Z,19.00
2019-05-31T05:33:53.358Z,19.10
2019-05-31T05:36:24.264Z,19.20
2019-05-31T05:38:53.895Z,19.30
2019-05-31T05:41:23.904Z,19.40
2019-05-31T05:43:53.453Z,19.50
2019-05-31T05:46:23.508Z,19.60
2019-05-31T05:48:53.315Z,19.70
2019-05-31T05:51:23.826Z,19.90
2019-05-31T05:53:53.172Z,20.20
2019-05-31T05:56:22.703Z,20.40
2019-05-31T05:59:00.924Z,20.50
2019-05-31T06:01:31.535Z,20.70
2019-05-31T06:04:00.995Z,20.80
2019-05-31T06:06:36.249Z,21.00
2019-05-31T06:09:07.647Z,21.20
2019-05-31T06:11:37.059Z,21.30
2019-05-31T06:14:06.378Z,21.50
2019-05-31T06:16:56.369Z,21.70
2019-05-31T06:19:07.477Z,21.80
2019-05-31T06:21:37.625Z,21.90
2019-05-31T06:24:06.933Z,22.00
2019-05-31T06:26:36.878Z,22.10
2019-05-31T06:29:06.238Z,22.10
2019-05-31T06:31:36.953Z,22.10
2019-05-31T06:34:06.310Z,22.20
2019-05-31T06:36:35.702Z,22.30
2019-05-31T06:39:07.309Z,22.30
2019-05-31T06:41:36.677Z,22.30
2019-05-31T06:44:29.291Z,22.40
2019-05-31T06:46:58.698Z,22.30
2019-05-31T06:49:28.607Z,22.30
2019-05-31T06:51:59.163Z,22.30
2019-05-31T06:54:30.459Z,22.20
2019-05-31T06:57:00.558Z,22.10
2019-05-31T06:59:34.124Z,22.10
2019-05-31T07:02:03.694Z,22.10
2019-05-31T07:04:33.068Z,22.10
2019-05-31T07:07:02.439Z,22.20
2019-05-31T07:09:32.570Z,22.30
2019-05-31T07:12:16.146Z,22.40
2019-05-31T07:14:34.710Z,22.50
2019-05-31T07:17:05.273Z,22.50
2019-05-31T07:19:40.921Z,22.60
2019-05-31T07:22:10.150Z,22.70
2019-05-31T07:24:39.332Z,22.70
2019-05-31T07:27:08.591Z,22.80
2019-05-31T07:29:42.077Z,22.80
2019-05-31T07:32:10.208Z,22.90
2019-05-31T07:34:40.507Z,22.90
2019-05-31T07:37:09.770Z,23.10
2019-05-31T07:39:39.403Z,23.20
2019-05-31T07:42:11.485Z,23.30
2019-05-31T07:44:41.668Z,23.50
2019-05-31T07:47:11.243Z,23.60
2019-05-31T07:49:40.599Z,23.50
2019-05-31T07:52:23.282Z,23.60
2019-05-31T07:54:40.980Z,23.60
2019-05-31T07:57:12.531Z,23.60
2019-05-31T07:59:42.110Z,23.60
2019-05-31T08:02:11.557Z,23.60
2019-05-31T08:04:40.914Z,23.70
2019-05-31T08:07:12.437Z,23.90
2019-05-31T08:09:41.661Z,23.90
2019-05-31T08:12:11.411Z,23.90
2019-05-31T08:14:40.899Z,24.00
2019-05-31T08:17:10.515Z,24.10
2019-05-31T08:19:41.105Z,24.10
2019-05-31T08:22:10.919Z,24.00
2019-05-31T08:24:44.131Z,24.00
2019-05-31T08:27:13.751Z,24.10
2019-05-31T08:29:47.969Z,24.20
2019-05-31T08:32:17.139Z,24.30
2019-05-31T08:34:47.113Z,24.50
2019-05-31T08:37:16.441Z,24.60
2019-05-31T08:39:45.870Z,24.60
2019-05-31T08:42:15.399Z,24.40
2019-05-31T08:44:44.919Z,24.40
2019-05-31T08:47:14.238Z,24.40
2019-05-31T08:49:48.510Z,24.30
2019-05-31T08:52:32.823Z,24.40
2019-05-31T08:54:49.868Z,24.40
2019-05-31T08:57:19.137Z,24.50
2019-05-31T08:59:48.465Z,24.60
2019-05-31T09:02:18.035Z,24.70
2019-05-31T09:04:47.451Z,24.70
2019-05-31T09:07:16.985Z,24.70
2019-05-31T09:09:46.406Z,24.70
2019-05-31T09:12:15.888Z,24.70
2019-05-31T09:14:45.192Z,24.70
2019-05-31T09:17:14.728Z,24.90
2019-05-31T09:19:58.323Z,25.00
2019-05-31T09:22:15.286Z,25.10
2019-05-31T09:24:44.482Z,25.20
2019-05-31T09:27:19.953Z,25.10
2019-05-31T09:30:17.083Z,25.30
2019-05-31T09:32:20.824Z,25.30
2019-05-31T09:34:50.234Z,25.30
2019-05-31T09:37:19.748Z,25.40
2019-05-31T09:39:49.364Z,25.50
2019-05-31T09:42:19.021Z,25.60
2019-05-31T09:44:48.347Z,25.80
2019-05-31T09:47:18.228Z,26.00
2019-05-31T09:49:52.070Z,26.30
2019-05-31T09:52:21.757Z,26.50
2019-05-31T09:54:52.154Z,26.60
2019-05-31T09:57:21.849Z,26.70
2019-05-31T09:59:51.336Z,26.80
2019-05-31T10:02:28.645Z,26.90
2019-05-31T10:04:58.226Z,26.80
2019-05-31T10:07:27.436Z,26.70
2019-05-31T10:09:58.938Z,26.60
2019-05-31T10:12:28.553Z,26.60
2019-05-31T10:14:57.969Z,26.50
2019-05-31T10:17:29.881Z,26.50
2019-05-31T10:19:58.313Z,26.70
2019-05-31T10:22:27.857Z,26.90
2019-05-31T10:24:57.505Z,27.00
2019-05-31T10:27:26.845Z,27.10
2019-05-31T10:29:56.231Z,27.30
2019-05-31T10:32:26.009Z,27.50
2019-05-31T10:34:57.601Z,27.70
2019-05-31T10:37:27.411Z,27.90
2019-05-31T10:39:56.684Z,28.00
2019-05-31T10:42:26.165Z,28.20
2019-05-31T10:44:56.064Z,28.30
2019-05-31T10:47:25.523Z,28.40
2019-05-31T10:49:54.765Z,28.40
2019-05-31T10:52:23.954Z,28.50
2019-05-31T10:54:53.236Z,28.50
2019-05-31T10:57:22.726Z,28.50
2019-05-31T10:59:52.021Z,28.60
2019-05-31T11:02:21.255Z,28.50
2019-05-31T11:04:50.457Z,28.50
2019-05-31T11:07:19.718Z,28.40
2019-05-31T11:09:48.904Z,28.30
2019-05-31T11:12:18.320Z,28.10
2019-05-31T11:14:47.504Z,27.90
2019-05-31T11:17:16.749Z,27.70
2019-05-31T11:20:02.542Z,27.60
2019-05-31T11:22:18.243Z,27.30
2019-05-31T11:24:47.705Z,27.30
2019-05-31T11:27:17.063Z,27.20
2019-05-31T11:29:52.873Z,27.20
2019-05-31T11:32:17.433Z,27.40
2019-05-31T11:34:46.708Z,27.60
2019-05-31T11:37:16.052Z,27.70
2019-05-31T11:39:47.034Z,27.90
2019-05-31T11:42:16.544Z,28.00
2019-05-31T11:44:47.013Z,28.00
2019-05-31T11:47:17.026Z,27.90
2019-05-31T11:49:47.407Z,27.80
2019-05-31T11:52:16.925Z,27.70
2019-05-31T11:55:17.444Z,27.60
2019-05-31T11:57:18.826Z,27.60
2019-05-31T12:02:34.777Z,27.50
2019-05-31T12:05:05.145Z,27.50
2019-05-31T12:07:35.145Z,27.70
2019-05-31T12:10:04.967Z,27.90
2019-05-31T12:12:34.252Z,28.70
2019-05-31T12:15:03.560Z,30.20
2019-05-31T12:17:32.972Z,31.80
2019-05-31T12:20:02.274Z,33.20
2019-05-31T12:22:31.542Z,33.50
2019-05-31T12:25:00.723Z,33.00
2019-05-31T12:27:29.915Z,32.40
2019-05-31T12:30:01.040Z,31.70
2019-05-31T12:32:31.967Z,31.20
2019-05-31T12:35:01.587Z,30.90
2019-05-31T12:37:30.889Z,30.90
2019-05-31T12:40:01.718Z,31.70
2019-05-31T12:42:37.795Z,33.00
2019-05-31T12:45:08.591Z,33.70
2019-05-31T12:47:38.055Z,33.70
2019-05-31T12:50:11.350Z,33.20
2019-05-31T12:52:51.772Z,32.60
2019-05-31T12:55:21.830Z,32.00
2019-05-31T12:57:58.071Z,31.40
2019-05-31T13:00:27.527Z,30.70
2019-05-31T13:03:04.868Z,30.10
2019-05-31T13:05:34.167Z,29.60
2019-05-31T13:08:06.448Z,29.10
2019-05-31T13:10:36.306Z,28.70
2019-05-31T13:13:05.722Z,28.40
2019-05-31T13:15:35.015Z,28.10
2019-05-31T13:18:05.249Z,27.80
2019-05-31T13:20:35.312Z,27.60
2019-05-31T13:23:14.877Z,27.40
2019-05-31T13:25:48.138Z,27.30
2019-05-31T13:28:17.571Z,27.10
2019-05-31T13:30:59.538Z,27.10
2019-05-31T13:33:24.597Z,27.00
2019-05-31T13:35:55.028Z,27.00
2019-05-31T13:38:30.203Z,27.10
2019-05-31T13:40:59.458Z,27.10
2019-05-31T13:43:28.921Z,27.10
2019-05-31T13:46:46.538Z,27.00
2019-05-31T13:49:15.599Z,26.90
2019-05-31T13:51:46.389Z,26.70
2019-05-31T13:54:15.796Z,26.60
2019-05-31T13:56:45.051Z,26.60
2019-05-31T13:59:14.480Z,26.60
2019-05-31T14:01:49.069Z,26.70
2019-05-31T14:04:18.916Z,26.90
2019-05-31T14:06:48.295Z,27.10
2019-05-31T14:09:17.691Z,27.50
2019-05-31T14:11:48.228Z,28.40
2019-05-31T14:14:17.892Z,29.30
2019-05-31T14:16:49.198Z,30.00
2019-05-31T14:19:20.620Z,30.50
2019-05-31T14:21:50.033Z,30.80
2019-05-31T14:24:21.618Z,30.80
2019-05-31T14:26:53.401Z,30.90
2019-05-31T14:29:23.261Z,31.50
2019-05-31T14:31:54.015Z,32.40
2019-05-31T14:34:25.868Z,32.80
2019-05-31T14:36:56.268Z,32.90
2019-05-31T14:39:25.809Z,32.70
2019-05-31T14:41:55.057Z,32.60
2019-05-31T14:44:24.411Z,32.60
2019-05-31T14:46:56.251Z,32.30
2019-05-31T14:49:31.107Z,32.00
2019-05-31T14:51:59.929Z,31.60
2019-05-31T14:54:29.553Z,31.10
2019-05-31T14:56:59.496Z,30.60
2019-05-31T14:59:28.958Z,30.10
2019-05-31T15:02:00.324Z,29.60
2019-05-31T15:04:30.081Z,29.30
2019-05-31T15:07:01.816Z,29.00
2019-05-31T15:09:31.247Z,28.60
2019-05-31T15:12:02.442Z,28.40
2019-05-31T15:14:31.961Z,28.20
2019-05-31T15:17:02.901Z,28.00
2019-05-31T15:19:32.255Z,27.80
2019-05-31T15:22:20.024Z,27.80
2019-05-31T15:24:50.053Z,27.70
2019-05-31T15:27:22.516Z,27.60
2019-05-31T15:29:52.962Z,27.60
2019-05-31T15:32:49.358Z,27.40
2019-05-31T15:36:04.493Z,27.20
2019-05-31T15:38:49.796Z,27.20
2019-05-31T15:41:08.296Z,27.20
2019-05-31T15:43:37.499Z,27.20
2019-05-31T15:46:06.713Z,27.20
2019-05-31T15:48:37.480Z,27.10
2019-05-31T15:51:06.691Z,27.10
2019-05-31T15:53:50.012Z,27.10
2019-05-31T15:56:07.908Z,27.20
2019-05-31T15:58:38.101Z,27.30
2019-05-31T16:01:09.653Z,27.30
2019-05-31T16:03:45.930Z,27.10
2019-05-31T16:06:24.851Z,27.00
2019-05-31T16:08:47.386Z,26.90
2019-05-31T16:11:16.595Z,26.70
2019-05-31T16:13:46.035Z,26.50
2019-05-31T16:16:15.286Z,26.40
2019-05-31T16:18:44.720Z,26.20
2019-05-31T16:21:14.066Z,26.10
2019-05-31T16:23:46.456Z,26.00
2019-05-31T16:26:21.198Z,25.80
2019-05-31T16:28:50.640Z,25.70
2019-05-31T16:31:26.833Z,25.70
2019-05-31T16:33:56.226Z,25.60
2019-05-31T16:36:25.548Z,25.60
2019-05-31T16:38:58.346Z,25.50
2019-05-31T16:41:27.898Z,25.40
2019-05-31T16:43:57.192Z,25.30
2019-05-31T16:46:26.590Z,25.30
2019-05-31T16:48:56.000Z,25.30
2019-05-31T16:51:26.118Z,25.30
2019-05-31T16:53:55.959Z,25.20
2019-05-31T16:56:32.983Z,25.10
2019-05-31T16:59:03.113Z,25.00
2019-05-31T17:01:32.962Z,24.90
2019-05-31T17:04:02.561Z,24.80
2019-05-31T17:06:31.893Z,24.80
2019-05-31T17:09:01.130Z,24.70
2019-05-31T17:11:30.427Z,24.70
2019-05-31T17:13:59.586Z,24.70
2019-05-31T17:16:29.220Z,24.70
2019-05-31T17:19:08.199Z,24.70
2019-05-31T17:21:37.558Z,24.80
2019-05-31T17:24:16.102Z,24.80
2019-05-31T17:26:39.684Z,24.90
2019-05-31T17:29:08.985Z,24.80
2019-05-31T17:31:38.479Z,24.80
2019-05-31T17:34:09.240Z,24.70
2019-05-31T17:36:39.207Z,24.70
2019-05-31T17:39:09.548Z,24.70
2019-05-31T17:41:38.884Z,24.60
2019-05-31T17:44:08.175Z,24.60
2019-05-31T17:46:37.409Z,24.60
2019-05-31T17:49:08.016Z,24.70
2019-05-31T17:51:45.416Z,24.70
2019-05-31T17:54:14.735Z,24.60
2019-05-31T17:57:22.591Z,24.60
2019-05-31T17:59:52.188Z,24.70
2019-05-31T18:02:21.830Z,24.70
2019-05-31T18:04:51.676Z,24.70
2019-05-31T18:07:21.364Z,24.70
2019-05-31T18:09:51.413Z,24.70
2019-05-31T18:12:21.317Z,24.60
2019-05-31T18:14:51.160Z,24.60
2019-05-31T18:17:20.924Z,24.50
2019-05-31T18:19:50.784Z,24.50
2019-05-31T18:22:33.857Z,24.50
2019-05-31T18:24:54.941Z,24.40
2019-05-31T18:27:24.662Z,24.40
2019-05-31T18:29:54.542Z,24.40
2019-05-31T18:32:24.300Z,24.40
2019-05-31T18:34:54.160Z,24.30
2019-05-31T18:37:24.036Z,24.30
2019-05-31T18:39:53.770Z,24.20
2019-05-31T18:42:24.286Z,24.10
2019-05-31T18:44:54.274Z,24.00
2019-05-31T18:47:24.325Z,24.00
2019-05-31T18:49:54.370Z,24.00
2019-05-31T18:52:26.435Z,23.90
2019-05-31T18:54:55.861Z,23.80
2019-05-31T18:57:25.580Z,23.80
2019-05-31T18:59:54.788Z,23.70
2019-05-31T19:02:24.499Z,23.70
2019-05-31T19:05:02.166Z,23.60
2019-05-31T19:07:35.952Z,23.50
2019-05-31T19:10:19.204Z,23.50
2019-05-31T19:12:52.482Z,23.50
2019-05-31T19:15:27.864Z,23.40
2019-05-31T19:17:57.961Z,23.30
2019-05-31T19:20:30.767Z,23.20
2019-05-31T19:23:02.130Z,23.10
2019-05-31T19:25:49.612Z,23.00
2019-05-31T19:28:09.700Z,22.90
2019-05-31T19:30:43.499Z,22.80
2019-05-31T19:33:18.723Z,22.70
2019-05-31T19:35:51.976Z,22.60
2019-05-31T19:38:28.144Z,22.60
2019-05-31T19:41:01.179Z,22.50
2019-05-31T19:43:31.304Z,22.40
2019-05-31T19:46:16.633Z,22.30
2019-05-31T19:49:08.793Z,22.30
2019-05-31T19:51:38.809Z,22.20
2019-05-31T19:54:09.047Z,22.10
2019-05-31T19:56:38.637Z,22.10
2019-05-31T19:59:07.944Z,22.00
2019-05-31T20:01:37.122Z,21.90
2019-05-31T20:04:06.301Z,21.90
2019-05-31T20:06:35.921Z,21.80
2019-05-31T20:09:18.842Z,21.80
2019-05-31T20:11:39.490Z,21.80
2019-05-31T20:14:09.511Z,21.70
2019-05-31T20:16:38.745Z,21.60
2019-05-31T20:19:09.053Z,21.60
2019-05-31T20:21:38.510Z,21.50
2019-05-31T20:24:09.443Z,21.50
2019-05-31T20:26:38.751Z,21.40
2019-05-31T20:29:07.937Z,21.30
2019-05-31T20:31:39.332Z,21.30
2019-05-31T20:34:10.101Z,21.30
2019-05-31T20:36:39.590Z,21.20
2019-05-31T20:39:09.013Z,21.20
2019-05-31T20:41:42.217Z,21.10
2019-05-31T20:44:09.640Z,21.10
2019-05-31T20:46:38.838Z,21.00
2019-05-31T20:49:12.396Z,20.90
2019-05-31T20:51:41.806Z,20.90
2019-05-31T20:54:11.299Z,20.90
2019-05-31T20:56:40.810Z,20.80
2019-05-31T20:59:10.284Z,20.80
2019-05-31T21:01:42.142Z,20.80
2019-05-31T21:04:11.416Z,20.70
2019-05-31T21:06:41.576Z,20.70
2019-05-31T21:09:10.958Z,20.60
2019-05-31T21:11:40.176Z,20.50
2019-05-31T21:14:11.085Z,20.50
2019-05-31T21:16:40.441Z,20.40
2019-05-31T21:19:09.800Z,20.30
2019-05-31T21:21:39.008Z,20.30
2019-05-31T21:24:08.343Z,20.20
2019-05-31T21:26:37.688Z,20.10
2019-05-31T21:29:06.901Z,20.10
2019-05-31T21:31:36.165Z,20.00
2019-05-31T21:34:05.382Z,19.90
2019-05-31T21:36:34.623Z,19.90
2019-05-31T21:39:05.438Z,19.80
2019-05-31T21:41:35.586Z,19.70
2019-05-31T21:44:05.104Z,19.70
2019-05-31T21:46:35.047Z,19.70
2019-05-31T21:49:04.332Z,19.60
2019-05-31T21:51:33.591Z,19.50
2019-05-31T21:54:03.343Z,19.50
2019-05-31T21:56:35.018Z,19.40
2019-05-31T21:59:07.978Z,19.40
2019-05-31T22:01:36.813Z,19.30
2019-05-31T22:04:06.772Z,19.20
2019-05-31T22:06:36.760Z,19.10
2019-05-31T22:09:08.306Z,19.10
2019-05-31T22:11:39.669Z,19.00
2019-05-31T22:14:20.783Z,19.00
2019-05-31T22:16:50.662Z,18.90
2019-05-31T22:19:20.269Z,18.90
2019-05-31T22:21:50.035Z,18.80
2019-05-31T22:24:19.281Z,18.70
2019-05-31T22:26:48.475Z,18.60
2019-05-31T22:29:22.510Z,18.60
2019-05-31T22:31:55.047Z,18.50
2019-05-31T22:34:40.687Z,18.50
2019-05-31T22:37:11.307Z,18.40
2019-05-31T22:39:40.882Z,18.40
2019-05-31T22:42:10.358Z,18.40
2019-05-31T22:44:41.042Z,18.30
2019-05-31T22:47:10.407Z,18.30
2019-05-31T22:49:41.417Z,18.30
2019-05-31T22:52:10.896Z,18.20
2019-05-31T22:54:40.145Z,18.20
2019-05-31T22:57:11.121Z,18.20
2019-05-31T22:59:45.065Z,18.20
2019-05-31T23:02:13.206Z,18.10
2019-05-31T23:04:42.892Z,18.10
2019-05-31T23:07:12.338Z,18.10
2019-05-31T23:09:42.193Z,18.10
2019-05-31T23:12:11.590Z,18.10
2019-05-31T23:14:40.912Z,18.10
2019-05-31T23:17:10.232Z,18.00
2019-05-31T23:19:39.482Z,18.00
2019-05-31T23:22:09.898Z,18.00
2019-05-31T23:24:39.574Z,18.00
2019-05-31T23:27:08.973Z,18.00
2019-05-31T23:29:51.526Z,18.00
2019-05-31T23:32:09.327Z,17.90
2019-05-31T23:34:38.723Z,17.90
2019-05-31T23:37:07.925Z,17.90
2019-05-31T23:39:37.967Z,17.90
2019-05-31T23:42:07.264Z,17.80
2019-05-31T23:44:36.570Z,17.80
2019-05-31T23:47:05.870Z,17.80
2019-05-31T23:49:35.041Z,17.80
2019-05-31T23:52:04.254Z,17.70
2019-05-31T23:54:33.500Z,17.70
2019-05-31T23:57:02.785Z,17.70
2019-05-31T23:59:32.000Z,17.70
